Goetzville, Michigan
Current Conditions -  °F | °C
As of 10:14 AM on Saturday 25 Oct 2014 (Local Time) from KDRM Reporting Station
Clear Clear  
Wind Chill: 55°   Ceiling: Unl
Heat Index: 55°   Visibility: 10mi
Dew Point: 48°   Wind: 6mph
Humidity: 76%   Direction: 270°W
Pressure: 29.62"   Gusts: NA
Location:  46.06°N, 84.09°W
Report Text: KDRM 251414Z AUTO 27005KT 10SM CLR 13/09 A2962 RMK AO2 T01300088
Loading
Personal Weather Stations






























Interactive Weather Map
Tropical Storm Tracking
New forecast layout! Learn more

10-Day Weather Forecast

Advertisements
Track Severe Weather on mobile